^^
MeteoGriva-Weather Station Historical Data
Daily Summary for October 8, 2020 Units:  Metric    English   Both
Daily Weekly Monthly Yearly Custom
  High: Low: Average:
Temperature: 20.1 °C 14.6 °C 17.2 °C
Dew Point: 16.5 °C 10.6 °C 13.4 °C
Humidity: 99% 64% 79%
Wind Speed: 19.6km/h 0km/h 3.5km/h
Wind Gust: 44.3km/h - -
Wind- - SSW
Pressure: 1012.2 hPa 1004.1 hPa -
Precipitation: 0.5 mm    
Historical Graphs
 
 
Tabular Data for October 8, 2020
Time Temperature Dew Point Pressure Wind Wind Speed Wind Gust Humidity Rainfall Rate (Hourly) solar
00:04 19.2 °C 14.7 °C 1004.7 hPa South 3.3 km/h 16.3 km/h 74.8% 0.0 mm 0 W/m2
00:09 19.2 °C 14.3 °C 1004.7 hPa ESE 0.8 km/h 24.1 km/h 73.3% 0.0 mm 0 W/m2
00:14 19.3 °C 14.5 °C 1004.7 hPa WSW 0.8 km/h 12.2 km/h 73.9% 0.0 mm 0 W/m2
00:19 19.3 °C 14.7 °C 1004.4 hPa ENE 1.5 km/h 12.2 km/h 74.8% 0.0 mm 0 W/m2
00:24 19.3 °C 15 °C 1004.7 hPa SSW 2.7 km/h 16.3 km/h 76% 0.0 mm 0 W/m2
00:29 19.2 °C 14.9 °C 1004.4 hPa South 4.8 km/h 20.1 km/h 76.1% 0.0 mm 0 W/m2
00:34 19.2 °C 14.7 °C 1004.4 hPa East 1.6 km/h 12.2 km/h 74.8% 0.0 mm 0 W/m2
00:39 19.2 °C 14.6 °C 1004.7 hPa WSW 3 km/h 20.1 km/h 74.4% 0.0 mm 0 W/m2
00:44 19.2 °C 14.8 °C 1004.4 hPa NE 2 km/h 12.2 km/h 75.2% 0.0 mm 0 W/m2
00:49 19.2 °C 14.8 °C 1004.4 hPa North 2.5 km/h 16.3 km/h 75.7% 0.0 mm 0 W/m2
00:54 19.2 °C 14.8 °C 1004.4 hPa NNE 3 km/h 12.2 km/h 75.8% 0.0 mm 0 W/m2
00:59 19.1 °C 14.5 °C 1004.4 hPa NE 2.1 km/h 12.2 km/h 74.6% 0.0 mm 0 W/m2
01:04 19.1 °C 14.6 °C 1004.4 hPa ENE 1.6 km/h 7.9 km/h 75% 0.0 mm 0 W/m2
01:09 19.1 °C 14.8 °C 1004.4 hPa SSW 1.1 km/h 7.9 km/h 75.9% 0.0 mm 0 W/m2
01:14 19 °C 14.7 °C 1004.4 hPa NW 0.3 km/h 7.9 km/h 76% 0.0 mm 0 W/m2
01:19 18.8 °C 14.9 °C 1004.4 hPa West 0.5 km/h 7.9 km/h 77.8% 0.0 mm 0 W/m2
01:24 18.8 °C 14.8 °C 1004.4 hPa Calm     77.7% 0.0 mm 0 W/m2
01:29 18.7 °C 14.5 °C 1004.4 hPa Calm     76.3% 0.0 mm 0 W/m2
01:34 18.8 °C 14.4 °C 1004.7 hPa Calm     75.6% 0.0 mm 0 W/m2
01:39 18.9 °C 14.7 °C 1004.4 hPa Calm   4 km/h 76.8% 0.0 mm 0 W/m2
01:44 18.9 °C 14.7 °C 1004.4 hPa NNW 0.4 km/h 7.9 km/h 76.3% 0.0 mm 0 W/m2
01:49 18.8 °C 14.7 °C 1004.4 hPa Calm     76.7% 0.0 mm 0 W/m2
01:54 18.7 °C 14.6 °C 1004.4 hPa Calm     77% 0.0 mm 0 W/m2
01:59 18.6 °C 14.4 °C 1004.4 hPa Calm     76.4% 0.0 mm 0 W/m2
02:04 18.7 °C 14.2 °C 1004.4 hPa Calm     75% 0.0 mm 0 W/m2
02:09 18.7 °C 14.3 °C 1004.1 hPa Calm     75.2% 0.0 mm 0 W/m2
02:14 18.8 °C 14.5 °C 1004.4 hPa Calm     76% 0.0 mm 0 W/m2
02:19 18.8 °C 14.4 °C 1004.4 hPa ENE 0.2 km/h 7.9 km/h 75.6% 0.0 mm 0 W/m2
02:24 18.8 °C 14.3 °C 1004.1 hPa Calm   7.9 km/h 75.1% 0.0 mm 0 W/m2
02:29 18.9 °C 14.4 °C 1004.4 hPa Calm   4 km/h 75% 0.0 mm 0 W/m2
02:34 19 °C 14.7 °C 1004.1 hPa Calm   7.9 km/h 75.9% 0.0 mm 0 W/m2
02:39 19.1 °C 15.2 °C 1004.4 hPa Calm     77.8% 0.0 mm 0 W/m2
02:44 19.1 °C 15.4 °C 1004.4 hPa Calm     79.1% 0.0 mm 0 W/m2
02:49 19 °C 15.7 °C 1004.7 hPa NW 0.2 km/h 4 km/h 80.9% 0.0 mm 0 W/m2
02:54 18.6 °C 15.8 °C 1004.4 hPa NW 0.1 km/h 4 km/h 83.7% 0.0 mm 0 W/m2
02:59 18.1 °C 15.2 °C 1004.4 hPa North 0.2 km/h 4 km/h 83% 0.0 mm 0 W/m2
03:04 18 °C 15.5 °C 1004.4 hPa Calm     85.4% 0.0 mm 0 W/m2
03:09 18 °C 15.7 °C 1004.4 hPa Calm     86.9% 0.0 mm 0 W/m2
03:14 17.7 °C 15.9 °C 1004.4 hPa Calm     89.7% 0.0 mm 0 W/m2
03:19 17.1 °C 15.8 °C 1004.4 hPa Calm     92.1% 0.0 mm 0 W/m2
03:24 17.1 °C 15.9 °C 1004.1 hPa Calm     92.4% 0.0 mm 0 W/m2
03:29 17 °C 16.3 °C 1004.1 hPa Calm     95.4% 1.8 mm 0 W/m2
03:34 16.6 °C 16.5 °C 1004.1 hPa NE 0.2 km/h 4 km/h 99% 1.8 mm 0 W/m2
03:39 15.8 °C 15.6 °C 1004.1 hPa Calm     99% 0.0 mm 0 W/m2
03:44 15.8 °C 15.6 °C 1004.1 hPa Calm   4 km/h 99% 0.0 mm 0 W/m2
03:49 15.7 °C 15.5 °C 1004.1 hPa Calm     99% 0.0 mm 0 W/m2
03:54 15.5 °C 15.3 °C 1004.1 hPa Calm     99% 0.0 mm 0 W/m2
03:59 15.3 °C 15 °C 1004.1 hPa WNW 0.6 km/h 4 km/h 98.3% 0.0 mm 0 W/m2
04:04 15.4 °C 15 °C 1004.4 hPa Calm   4 km/h 97.1% 0.0 mm 0 W/m2
04:09 15.5 °C 15.2 °C 1004.1 hPa Calm     98.3% 0.0 mm 0 W/m2
04:14 15.7 °C 15.2 °C 1004.4 hPa Calm     96.9% 0.0 mm 0 W/m2
04:19 16 °C 15.3 °C 1004.7 hPa Calm     95.3% 0.0 mm 0 W/m2
04:24 16.1 °C 15.1 °C 1004.4 hPa Calm     93.9% 0.0 mm 0 W/m2
04:29 16.1 °C 15.3 °C 1004.4 hPa Calm     95.1% 0.0 mm 0 W/m2
04:34 16.2 °C 15 °C 1004.4 hPa Calm     92.7% 0.0 mm 0 W/m2
04:39 16.5 °C 15.2 °C 1004.7 hPa Calm     91.9% 0.0 mm 0 W/m2
04:44 16.5 °C 15.3 °C 1004.4 hPa Calm     92.3% 0.0 mm 0 W/m2
04:49 16.5 °C 15.2 °C 1004.7 hPa Calm     92.1% 0.0 mm 0 W/m2
04:54 16.5 °C 15.6 °C 1004.7 hPa SSW 0.2 km/h 4 km/h 94.9% 0.0 mm 0 W/m2
04:59 16.1 °C 15.6 °C 1004.7 hPa Calm     97% 0.0 mm 0 W/m2
05:04 16.1 °C 15.1 °C 1004.7 hPa Calm     93.7% 0.0 mm 0 W/m2
05:09 16.2 °C 15.5 °C 1004.7 hPa Calm     95.3% 0.0 mm 0 W/m2
05:14 16.2 °C 15.2 °C 1004.7 hPa Calm     93.8% 0.0 mm 0 W/m2
05:19 16.4 °C 15.5 °C 1004.7 hPa Calm     94.2% 1.8 mm 0 W/m2
05:24 16.3 °C 15.3 °C 1004.7 hPa Calm   4 km/h 93.7% 1.8 mm 0 W/m2
05:29 16.3 °C 15.4 °C 1004.7 hPa Calm     94.7% 1.8 mm 0 W/m2
05:34 16.3 °C 16 °C 1004.7 hPa Calm     98.6% 0.0 mm 0 W/m2
05:39 15.3 °C 15.1 °C 1004.7 hPa Calm     99% 0.0 mm 0 W/m2
05:44 15.3 °C 15.1 °C 1004.7 hPa Calm     99% 0.0 mm 0 W/m2
05:49 15.3 °C 15.1 °C 1004.7 hPa NNE 0.7 km/h 7.9 km/h 99% 0.0 mm 0 W/m2
05:54 15.3 °C 15 °C 1004.7 hPa East 0.1 km/h 4 km/h 98.1% 0.0 mm 0 W/m2
05:59 15.5 °C 15 °C 1004.4 hPa Calm   4 km/h 97% 0.0 mm 0 W/m2
06:04 15.5 °C 15.1 °C 1004.7 hPa Calm     97.1% 0.0 mm 0 W/m2
06:09 15.5 °C 14.8 °C 1004.7 hPa Calm     95.2% 0.0 mm 0 W/m2
06:14 15.6 °C 14.2 °C 1004.7 hPa Calm     91.9% 0.0 mm 0 W/m2
06:19 16 °C 14.9 °C 1004.7 hPa Calm     93.4% 0.0 mm 0 W/m2
06:24 16 °C 14.8 °C 1004.7 hPa Calm     92.4% 0.0 mm 0 W/m2
06:29 16 °C 14.9 °C 1004.7 hPa Calm     93.1% 0.0 mm 0 W/m2
06:34 16 °C 14.8 °C 1004.7 hPa Calm     92.6% 0.0 mm 0 W/m2
06:39 15.9 °C 14.6 °C 1004.7 hPa Calm     92.6% 0.0 mm 0 W/m2
06:44 15.9 °C 14.1 °C 1004.7 hPa ENE 0.3 km/h 7.9 km/h 89.2% 0.0 mm 0 W/m2
06:49 16 °C 13.9 °C 1004.7 hPa Calm   7.9 km/h 87.8% 0.0 mm 0 W/m2
06:54 16 °C 14 °C 1004.7 hPa NNW 4.9 km/h 12.2 km/h 87.6% 0.0 mm 0 W/m2
06:59 16.6 °C 14.1 °C 1004.7 hPa NNW 4.7 km/h 16.3 km/h 85.2% 0.0 mm 0 W/m2
07:04 16.6 °C 14.2 °C 1004.7 hPa NNE 1 km/h 12.2 km/h 85.7% 0.0 mm 0 W/m2
07:09 16.6 °C 14.1 °C 1005.1 hPa Calm   7.9 km/h 85.3% 0.0 mm 0 W/m2
07:14 16.5 °C 14.1 °C 1005.1 hPa Calm     86% 0.0 mm 0 W/m2
07:19 16.2 °C 14.1 °C 1005.1 hPa Calm     87.8% 0.0 mm 0 W/m2
07:24 16.1 °C 14.1 °C 1005.4 hPa Calm     88% 0.0 mm 0 W/m2
07:29 16 °C 14.2 °C 1005.4 hPa Calm     88.7% 0.0 mm 0 W/m2
07:34 16 °C 14.3 °C 1005.4 hPa Calm     89.4% 0.0 mm 0 W/m2
07:39 15.5 °C 14.3 °C 1005.4 hPa Calm     92.9% 0.0 mm 0 W/m2
07:44 15.4 °C 14.5 °C 1005.4 hPa NNE 0.6 km/h 7.9 km/h 94.7% 0.0 mm 2 W/m2
07:49 15.4 °C 14.6 °C 1005.4 hPa North 6.5 km/h 16.3 km/h 95% 0.0 mm 4 W/m2
07:54 15.4 °C 14.5 °C 1005.4 hPa North 5.2 km/h 16.3 km/h 94.3% 0.0 mm 6 W/m2
07:59 15.6 °C 14 °C 1005.4 hPa North 0.5 km/h 12.2 km/h 90.4% 0.0 mm 13 W/m2
08:04 15.6 °C 14 °C 1005.4 hPa Calm     90% 0.0 mm 19 W/m2
08:09 15.6 °C 13.9 °C 1005.4 hPa Calm     89.3% 0.0 mm 26 W/m2
08:14 15.6 °C 14 °C 1005.4 hPa NNE 0.5 km/h 12.2 km/h 90% 0.0 mm 34 W/m2
08:19 14.8 °C 14.3 °C 1005.4 hPa Calm   4 km/h 96.5% 0.0 mm 45 W/m2
08:24 14.8 °C 13.7 °C 1005.8 hPa Calm     93.4% 0.0 mm 58 W/m2
08:29 14.9 °C 13 °C 1005.8 hPa Calm     88.1% 0.0 mm 47 W/m2
08:34 15.2 °C 12.9 °C 1005.4 hPa Calm   4 km/h 86.2% 0.0 mm 46 W/m2
08:39 16.4 °C 13.9 °C 1005.8 hPa Calm     84.9% 0.0 mm 49 W/m2
08:44 16.7 °C 14 °C 1005.8 hPa NNE 0.9 km/h 7.9 km/h 83.8% 0.0 mm 53 W/m2
08:49 16.7 °C 14.7 °C 1005.8 hPa NNW 4.1 km/h 12.2 km/h 87.9% 0.0 mm 46 W/m2
08:54 16.6 °C 15.6 °C 1005.8 hPa North 6.3 km/h 16.3 km/h 94% 0.0 mm 33 W/m2
08:59 15.5 °C 14.8 °C 1005.8 hPa NNW 2.6 km/h 12.2 km/h 95.4% 0.0 mm 35 W/m2
09:04 15.1 °C 14.6 °C 1005.8 hPa NW 2.2 km/h 12.2 km/h 96.7% 0.0 mm 36 W/m2
09:09 15.1 °C 14.1 °C 1006.1 hPa NW 2.3 km/h 12.2 km/h 94% 0.0 mm 47 W/m2
09:14 15.2 °C 13.8 °C 1006.1 hPa West 0.4 km/h 4 km/h 91.7% 0.0 mm 71 W/m2
09:19 16 °C 14.3 °C 1006.1 hPa Calm   4 km/h 89.4% 0.0 mm 70 W/m2
09:24 16.3 °C 14.4 °C 1006.1 hPa Calm   4 km/h 88.4% 0.0 mm 66 W/m2
09:29 16.3 °C 14 °C 1006.1 hPa NNE 2.2 km/h 12.2 km/h 86% 0.0 mm 74 W/m2
09:34 16.3 °C 14.8 °C 1006.4 hPa NNW 0.8 km/h 12.2 km/h 90.9% 0.0 mm 80 W/m2
09:39 15.9 °C 14.6 °C 1006.4 hPa North 1.9 km/h 7.9 km/h 92% 0.0 mm 83 W/m2
09:44 15.7 °C 13.9 °C 1006.4 hPa North 2.9 km/h 7.9 km/h 89.1% 0.0 mm 81 W/m2
09:49 15.8 °C 13.7 °C 1006.4 hPa NNW 1 km/h 7.9 km/h 87.8% 0.0 mm 84 W/m2
09:54 15.8 °C 13.8 °C 1006.4 hPa NW 0.2 km/h 7.9 km/h 87.8% 0.0 mm 126 W/m2
09:59 17 °C 14.1 °C 1006.4 hPa Calm     83.1% 0.0 mm 130 W/m2
10:04 17.5 °C 14 °C 1006.4 hPa NE 3.4 km/h 12.2 km/h 80% 0.0 mm 138 W/m2
10:09 17.7 °C 14.2 °C 1006.4 hPa NE 5.2 km/h 20.1 km/h 80.1% 0.0 mm 155 W/m2
10:14 17.8 °C 14.3 °C 1006.4 hPa North 8.5 km/h 20.1 km/h 80% 0.0 mm 159 W/m2
10:19 18.2 °C 14.3 °C 1006.4 hPa North 9.3 km/h 20.1 km/h 77.9% 0.0 mm 169 W/m2
10:24 18.5 °C 14.5 °C 1006.4 hPa North 8.6 km/h 20.1 km/h 77.4% 0.0 mm 170 W/m2
10:29 18.5 °C 14.4 °C 1006.4 hPa North 11.8 km/h 28 km/h 77.2% 0.0 mm 181 W/m2
10:34 18.5 °C 14.3 °C 1006.4 hPa North 6.8 km/h 20.1 km/h 76.2% 0.0 mm 194 W/m2
10:39 18.4 °C 14 °C 1006.8 hPa NNW 6.8 km/h 16.3 km/h 75.4% 0.0 mm 127 W/m2
10:44 18.3 °C 13.8 °C 1006.8 hPa North 1.2 km/h 16.3 km/h 75% 0.0 mm 127 W/m2
10:49 18.3 °C 13.7 °C 1006.8 hPa Calm   4 km/h 74.6% 0.0 mm 115 W/m2
10:54 18.3 °C 13.7 °C 1006.8 hPa North 1.4 km/h 7.9 km/h 74.7% 0.0 mm 180 W/m2
10:59 18.4 °C 13.8 °C 1006.8 hPa Calm     74.7% 0.0 mm 167 W/m2
11:04 18.5 °C 14 °C 1006.8 hPa Calm     75.1% 0.0 mm 115 W/m2
11:09 18.4 °C 14.2 °C 1006.8 hPa Calm     76.6% 0.0 mm 134 W/m2
11:14 18.3 °C 14.2 °C 1006.8 hPa ENE 0.5 km/h 7.9 km/h 77.1% 0.0 mm 171 W/m2
11:19 18.3 °C 14 °C 1006.8 hPa NNE 1.5 km/h 12.2 km/h 75.7% 0.0 mm 140 W/m2
11:24 18.4 °C 13.8 °C 1006.8 hPa NNE 2.5 km/h 12.2 km/h 74.3% 0.0 mm 169 W/m2
11:29 18.4 °C 13.7 °C 1007.1 hPa NNW 0.3 km/h 7.9 km/h 74% 0.0 mm 172 W/m2
11:34 18.5 °C 13.8 °C 1007.1 hPa North 6.8 km/h 20.1 km/h 74% 0.0 mm 133 W/m2
11:39 18.3 °C 13.8 °C 1007.1 hPa NNW 9.2 km/h 20.1 km/h 74.9% 0.0 mm 249 W/m2
11:44 18.1 °C 13.3 °C 1007.1 hPa North 7.5 km/h 20.1 km/h 73.7% 0.0 mm 142 W/m2
11:49 18.2 °C 13.4 °C 1007.5 hPa Calm   7.9 km/h 73.7% 0.0 mm 322 W/m2
11:54 18.4 °C 13.1 °C 1007.5 hPa North 1.4 km/h 7.9 km/h 71.2% 0.0 mm 299 W/m2
11:59 19.2 °C 13.9 °C 1007.5 hPa NNE 3.4 km/h 12.2 km/h 71.3% 0.0 mm 319 W/m2
12:04 20 °C 14.3 °C 1007.5 hPa SE 2.4 km/h 12.2 km/h 69.8% 0.0 mm 341 W/m2
12:09 20.1 °C 14.4 °C 1007.5 hPa SSE 3.3 km/h 20.1 km/h 69.8% 0.0 mm 351 W/m2
12:14 20.1 °C 14.3 °C 1007.5 hPa North 6.3 km/h 16.3 km/h 69.2% 0.0 mm 358 W/m2
12:19 19.9 °C 14.2 °C 1007.5 hPa North 6.5 km/h 20.1 km/h 69.9% 0.0 mm 338 W/m2
12:24 19.3 °C 14 °C 1007.5 hPa North 4.9 km/h 16.3 km/h 71.6% 0.0 mm 107 W/m2
12:29 19.2 °C 14 °C 1007.5 hPa NNW 8.7 km/h 20.1 km/h 72% 0.0 mm 121 W/m2
12:34 19 °C 14 °C 1007.5 hPa North 5.4 km/h 16.3 km/h 72.6% 0.0 mm 116 W/m2
12:39 19 °C 13.8 °C 1007.1 hPa NNE 6.9 km/h 20.1 km/h 71.6% 0.0 mm 354 W/m2
12:44 19.2 °C 13.6 °C 1007.5 hPa North 9.7 km/h 20.1 km/h 70.1% 0.0 mm 370 W/m2
12:49 19.2 °C 13.6 °C 1007.5 hPa NNW 9.6 km/h 16.3 km/h 70% 0.0 mm 261 W/m2
12:54 19.2 °C 13.7 °C 1007.5 hPa North 6.6 km/h 24.1 km/h 70.8% 0.0 mm 246 W/m2
12:59 19 °C 13.9 °C 1007.5 hPa NNE 3.8 km/h 16.3 km/h 72.4% 0.0 mm 116 W/m2
13:04 18.5 °C 13.7 °C 1007.5 hPa NNE 2.2 km/h 7.9 km/h 73% 0.0 mm 115 W/m2
13:09 18.6 °C 13.5 °C 1007.5 hPa North 2.1 km/h 12.2 km/h 72.2% 0.0 mm 117 W/m2
13:14 18.6 °C 13.6 °C 1007.5 hPa NW 1 km/h 7.9 km/h 72.6% 0.0 mm 261 W/m2
13:19 18.7 °C 13.3 °C 1007.5 hPa North 3 km/h 12.2 km/h 71.1% 0.0 mm 198 W/m2
13:24 18.8 °C 13.2 °C 1007.5 hPa North 7.1 km/h 16.3 km/h 70.1% 0.0 mm 416 W/m2
13:29 18.8 °C 13.2 °C 1007.1 hPa NNW 8.3 km/h 20.1 km/h 70.1% 0.0 mm 104 W/m2
13:34 18.7 °C 13.2 °C 1007.5 hPa NNW 9.2 km/h 20.1 km/h 70.7% 0.0 mm 103 W/m2
13:39 18.5 °C 13.5 °C 1007.5 hPa NNE 6.4 km/h 20.1 km/h 72.6% 0.0 mm 217 W/m2
13:44 18.2 °C 12.6 °C 1007.1 hPa NNW 12.4 km/h 28 km/h 70% 0.0 mm 400 W/m2
13:49 18.2 °C 12.4 °C 1007.1 hPa NNW 11.2 km/h 20.1 km/h 69.2% 0.0 mm 403 W/m2
13:54 18.3 °C 12.5 °C 1007.1 hPa North 10.8 km/h 24.1 km/h 68.9% 0.0 mm 413 W/m2
13:59 18.7 °C 12.6 °C 1007.1 hPa NNE 8.7 km/h 24.1 km/h 67.7% 0.0 mm 416 W/m2
14:04 19.7 °C 13.5 °C 1007.1 hPa NE 6.9 km/h 24.1 km/h 67.3% 0.0 mm 434 W/m2
14:09 19.7 °C 13.5 °C 1006.8 hPa North 7.3 km/h 16.3 km/h 67.7% 0.0 mm 442 W/m2
14:14 19.7 °C 13.4 °C 1006.8 hPa North 16 km/h 28 km/h 67.1% 0.0 mm 434 W/m2
14:19 19.6 °C 13.3 °C 1006.8 hPa North 12.6 km/h 28 km/h 67% 0.0 mm 425 W/m2
14:24 19.5 °C 13.4 °C 1006.4 hPa NNW 8.8 km/h 20.1 km/h 67.9% 0.0 mm 431 W/m2
14:29 19.5 °C 13.3 °C 1006.4 hPa NNW 7.6 km/h 20.1 km/h 67.4% 0.0 mm 438 W/m2
14:34 19.6 °C 13.3 °C 1006.4 hPa North 8.3 km/h 20.1 km/h 67% 0.0 mm 445 W/m2
14:39 19.6 °C 13.4 °C 1006.4 hPa North 12.4 km/h 28 km/h 67.2% 0.0 mm 447 W/m2
14:44 19.4 °C 13.5 °C 1006.4 hPa NNW 11.8 km/h 24.1 km/h 68.7% 0.0 mm 124 W/m2
14:49 19.3 °C 13.6 °C 1006.4 hPa North 9.2 km/h 20.1 km/h 69.6% 0.0 mm 474 W/m2
14:54 19.2 °C 13.2 °C 1006.4 hPa NNW 4.8 km/h 24.1 km/h 68.3% 0.0 mm 476 W/m2
14:59 19.1 °C 13 °C 1006.4 hPa NNE 5.6 km/h 12.2 km/h 67.9% 0.0 mm 249 W/m2
15:04 18.9 °C 13.3 °C 1006.4 hPa North 8.4 km/h 24.1 km/h 70% 0.0 mm 78 W/m2
15:09 18.7 °C 13.3 °C 1006.8 hPa North 14.6 km/h 28 km/h 71% 0.0 mm 75 W/m2
15:14 18.5 °C 13.2 °C 1006.8 hPa North 14.2 km/h 28 km/h 71% 0.0 mm 409 W/m2
15:19 18.4 °C 12.7 °C 1007.1 hPa North 14.2 km/h 32.3 km/h 69.7% 0.0 mm 447 W/m2
15:24 18.4 °C 12.7 °C 1007.1 hPa NNW 19.6 km/h 44.3 km/h 69.3% 0.0 mm 453 W/m2
15:29 18.4 °C 12.6 °C 1007.1 hPa North 12.4 km/h 36.4 km/h 69.2% 0.0 mm 435 W/m2
15:34 18.3 °C 12.6 °C 1007.1 hPa NNW 5.1 km/h 20.1 km/h 69.4% 0.0 mm 456 W/m2
15:39 18.4 °C 12.3 °C 1006.8 hPa Calm   4 km/h 67.9% 0.0 mm 416 W/m2
15:44 18.9 °C 12.9 °C 1007.1 hPa NE 2.2 km/h 16.3 km/h 68.1% 0.0 mm 436 W/m2
15:49 18.9 °C 12.9 °C 1007.1 hPa NNW 4.8 km/h 20.1 km/h 67.9% 0.0 mm 445 W/m2
15:54 19 °C 12.5 °C 1006.8 hPa NNW 0.9 km/h 7.9 km/h 65.7% 0.0 mm 450 W/m2
15:59 19.2 °C 12.7 °C 1007.1 hPa East 2.4 km/h 12.2 km/h 65.8% 0.0 mm 364 W/m2
16:04 19.2 °C 13.1 °C 1007.5 hPa North 3.2 km/h 16.3 km/h 68% 0.0 mm 192 W/m2
16:09 19.2 °C 13 °C 1007.5 hPa WNW 2.5 km/h 12.2 km/h 67.6% 0.0 mm 142 W/m2
16:14 19.2 °C 12.8 °C 1007.5 hPa Calm   7.9 km/h 66.3% 0.0 mm 163 W/m2
16:19 19.1 °C 13 °C 1007.5 hPa North 2.3 km/h 7.9 km/h 67.4% 0.0 mm 129 W/m2
16:24 18.8 °C 12.8 °C 1007.5 hPa NNE 1.7 km/h 7.9 km/h 68% 0.0 mm 105 W/m2
16:29 18.9 °C 12.7 °C 1007.5 hPa Calm     67.3% 0.0 mm 89 W/m2
16:34 18.9 °C 12.3 °C 1007.5 hPa NNE 4.8 km/h 12.2 km/h 65.6% 0.0 mm 106 W/m2
16:39 18.9 °C 12.2 °C 1007.5 hPa North 0.3 km/h 12.2 km/h 65.1% 0.0 mm 124 W/m2
16:44 18.8 °C 12 °C 1007.5 hPa North 1.4 km/h 7.9 km/h 64.6% 0.0 mm 273 W/m2
16:49 18.9 °C 12 °C 1007.8 hPa ENE 0.9 km/h 12.2 km/h 64.3% 0.0 mm 191 W/m2
16:54 18.9 °C 12 °C 1007.8 hPa NNW 0.4 km/h 7.9 km/h 64% 0.0 mm 158 W/m2
16:59 19 °C 12.3 °C 1007.5 hPa NNE 0.2 km/h 7.9 km/h 65.1% 0.0 mm 196 W/m2
17:04 18.9 °C 12.5 °C 1007.8 hPa NNE 0.7 km/h 7.9 km/h 66.3% 0.0 mm 261 W/m2
17:09 18.9 °C 12.3 °C 1007.8 hPa SSW 1.2 km/h 7.9 km/h 65.4% 0.0 mm 109 W/m2
17:14 18.9 °C 12.5 °C 1007.8 hPa NNW 0.8 km/h 12.2 km/h 66.3% 0.0 mm 104 W/m2
17:19 18.8 °C 13.8 °C 1008.1 hPa North 0.4 km/h 12.2 km/h 72.4% 0.0 mm 63 W/m2
17:24 17.5 °C 13.1 °C 1008.1 hPa ENE 2.5 km/h 16.3 km/h 75.6% 0.0 mm 50 W/m2
17:29 17.3 °C 12.8 °C 1007.8 hPa SE 0.9 km/h 7.9 km/h 75.1% 0.0 mm 51 W/m2
17:34 17.3 °C 12.9 °C 1008.1 hPa East 1.1 km/h 12.2 km/h 75.8% 0.0 mm 53 W/m2
17:39 17.1 °C 13.3 °C 1008.5 hPa North 0.8 km/h 7.9 km/h 78.6% 0.0 mm 42 W/m2
17:44 16.4 °C 12.8 °C 1008.5 hPa South 1 km/h 12.2 km/h 79.3% 0.0 mm 33 W/m2
17:49 16.2 °C 12.9 °C 1008.5 hPa SW 0.3 km/h 12.2 km/h 81.1% 0.0 mm 39 W/m2
17:54 16.1 °C 12.9 °C 1008.8 hPa Calm   12.2 km/h 81.6% 0.0 mm 37 W/m2
17:59 16.1 °C 12.5 °C 1008.8 hPa North 3.3 km/h 16.3 km/h 79.3% 0.0 mm 33 W/m2
18:04 16 °C 12.1 °C 1008.8 hPa WNW 2.7 km/h 12.2 km/h 77.6% 0.0 mm 28 W/m2
18:09 16 °C 11.7 °C 1008.8 hPa NE 1.5 km/h 12.2 km/h 75.8% 0.0 mm 28 W/m2
18:14 16 °C 11.6 °C 1008.8 hPa North 1.9 km/h 12.2 km/h 74.7% 0.0 mm 30 W/m2
18:19 16.1 °C 11.4 °C 1008.8 hPa NNW 3.3 km/h 12.2 km/h 73.6% 0.0 mm 31 W/m2
18:24 16.2 °C 11.7 °C 1009.1 hPa ESE 0.4 km/h 7.9 km/h 74.1% 0.0 mm 30 W/m2
18:29 16.3 °C 11.6 °C 1009.1 hPa SW 1 km/h 12.2 km/h 73.6% 0.0 mm 24 W/m2
18:34 16.2 °C 11.6 °C 1009.1 hPa NW 0.6 km/h 7.9 km/h 74.2% 0.0 mm 21 W/m2
18:39 16.2 °C 11.7 °C 1009.1 hPa Calm     74.4% 0.0 mm 14 W/m2
18:44 15.9 °C 11.3 °C 1009.1 hPa NNW 3.9 km/h 28 km/h 74% 0.0 mm 10 W/m2
18:49 15.8 °C 11.1 °C 1009.1 hPa NE 3.3 km/h 16.3 km/h 73.6% 0.0 mm 7 W/m2
18:54 15.8 °C 11.1 °C 1009.1 hPa NW 3.5 km/h 24.1 km/h 73.1% 0.0 mm 4 W/m2
18:59 15.9 °C 11.2 °C 1009.1 hPa Calm   12.2 km/h 73.8% 0.0 mm 2 W/m2
19:04 15.9 °C 11.3 °C 1009.1 hPa NNW 1.3 km/h 16.3 km/h 74.2% 0.0 mm 0 W/m2
19:09 15.8 °C 11.2 °C 1009.1 hPa North 6.7 km/h 24.1 km/h 73.9% 0.0 mm 0 W/m2
19:14 15.9 °C 11 °C 1009.5 hPa North 8.4 km/h 24.1 km/h 72.6% 0.0 mm 0 W/m2
19:19 15.9 °C 11.1 °C 1009.5 hPa NNW 9.7 km/h 32.3 km/h 73% 0.0 mm 0 W/m2
19:24 16 °C 11.2 °C 1009.5 hPa North 3.5 km/h 20.1 km/h 73.2% 0.0 mm 0 W/m2
19:29 16 °C 11.3 °C 1009.5 hPa North 11 km/h 28 km/h 73.4% 0.0 mm 0 W/m2
19:34 16 °C 11.2 °C 1009.1 hPa NNW 11 km/h 36.4 km/h 72.9% 0.0 mm 0 W/m2
19:39 15.9 °C 11.1 °C 1009.1 hPa NNW 12.8 km/h 28 km/h 72.8% 0.0 mm 0 W/m2
19:44 15.9 °C 11.1 °C 1009.1 hPa North 10.8 km/h 28 km/h 73% 0.0 mm 0 W/m2
19:49 15.8 °C 11 °C 1009.1 hPa North 8.9 km/h 28 km/h 72.8% 0.0 mm 0 W/m2
19:54 15.9 °C 10.9 °C 1009.1 hPa North 4.3 km/h 20.1 km/h 72% 0.0 mm 0 W/m2
19:59 15.9 °C 10.9 °C 1009.5 hPa North 3.2 km/h 16.3 km/h 72% 0.0 mm 0 W/m2
20:04 16 °C 11 °C 1010.2 hPa North 6.4 km/h 16.3 km/h 72% 0.0 mm 0 W/m2
20:09 16 °C 11 °C 1009.5 hPa North 6.8 km/h 24.1 km/h 71.9% 0.0 mm 0 W/m2
20:14 16 °C 10.8 °C 1009.8 hPa North 8.1 km/h 24.1 km/h 71.4% 0.0 mm 0 W/m2
20:19 16 °C 10.7 °C 1009.8 hPa NNW 1.4 km/h 16.3 km/h 70.8% 0.0 mm 0 W/m2
20:24 16 °C 10.6 °C 1009.8 hPa NNW 7.3 km/h 16.3 km/h 70.7% 0.0 mm 0 W/m2
20:29 16 °C 10.6 °C 1010.2 hPa North 7.7 km/h 20.1 km/h 70.3% 0.0 mm 0 W/m2
20:34 16 °C 10.6 °C 1009.8 hPa North 6.3 km/h 16.3 km/h 70.3% 0.0 mm 0 W/m2
20:39 16.1 °C 10.8 °C 1009.8 hPa NNW 4.5 km/h 20.1 km/h 71% 0.0 mm 0 W/m2
20:44 16 °C 11 °C 1009.8 hPa NNW 10.5 km/h 24.1 km/h 72% 0.0 mm 0 W/m2
20:49 16 °C 10.7 °C 1009.8 hPa NNW 13.3 km/h 40.4 km/h 71.2% 0.0 mm 0 W/m2
20:54 16 °C 10.7 °C 1009.8 hPa NNW 11.9 km/h 24.1 km/h 71% 0.0 mm 0 W/m2
20:59 16.1 °C 10.6 °C 1009.8 hPa NNW 15.2 km/h 28 km/h 70% 0.0 mm 0 W/m2
21:04 16.2 °C 10.8 °C 1009.8 hPa North 18 km/h 32.3 km/h 70.4% 0.0 mm 0 W/m2
21:09 16.3 °C 10.8 °C 1010.2 hPa NNW 12 km/h 28 km/h 70.2% 0.0 mm 0 W/m2
21:14 16.3 °C 11 °C 1009.8 hPa NNW 10.3 km/h 24.1 km/h 71% 0.0 mm 0 W/m2
21:19 16.3 °C 10.8 °C 1009.8 hPa North 14.3 km/h 28 km/h 70% 0.0 mm 0 W/m2
21:24 16.3 °C 10.9 °C 1009.5 hPa North 13 km/h 36.4 km/h 70.7% 0.0 mm 0 W/m2
21:29 16.2 °C 10.9 °C 1009.8 hPa North 11.6 km/h 36.4 km/h 70.8% 0.0 mm 0 W/m2
21:34 16.3 °C 10.9 °C 1009.8 hPa North 12.6 km/h 32.3 km/h 70.3% 0.0 mm 0 W/m2
21:39 16.3 °C 11 °C 1009.8 hPa NNE 10.6 km/h 28 km/h 71.1% 0.0 mm 0 W/m2
21:44 16.3 °C 11.2 °C 1010.2 hPa NNE 11.1 km/h 24.1 km/h 72% 0.0 mm 0 W/m2
21:49 16.2 °C 11.3 °C 1009.8 hPa NE 5 km/h 20.1 km/h 72.6% 0.0 mm 0 W/m2
21:54 16.2 °C 11.7 °C 1010.2 hPa NNE 6.6 km/h 28 km/h 74.3% 0.0 mm 0 W/m2
21:59 16.1 °C 11.7 °C 1010.2 hPa NW 8.1 km/h 24.1 km/h 75.2% 0.0 mm 0 W/m2
22:04 15.8 °C 11.5 °C 1010.2 hPa South 5 km/h 24.1 km/h 75.6% 0.0 mm 0 W/m2
22:09 15.5 °C 11.3 °C 1010.5 hPa SSW 4 km/h 24.1 km/h 75.8% 0.0 mm 0 W/m2
22:14 15.5 °C 11.3 °C 1010.5 hPa ESE 5 km/h 20.1 km/h 76% 0.0 mm 0 W/m2
22:19 15.5 °C 11.4 °C 1010.5 hPa NE 4.3 km/h 16.3 km/h 76.5% 0.0 mm 0 W/m2
22:24 15.5 °C 11.4 °C 1010.5 hPa WNW 3.9 km/h 20.1 km/h 76.7% 0.0 mm 0 W/m2
22:29 15.5 °C 11.3 °C 1010.5 hPa East 4.3 km/h 20.1 km/h 76% 0.0 mm 0 W/m2
22:34 15.5 °C 11.3 °C 1010.5 hPa NNW 5.6 km/h 20.1 km/h 76.1% 0.0 mm 0 W/m2
22:39 15.5 °C 11.3 °C 1010.5 hPa ESE 5.7 km/h 16.3 km/h 76% 0.0 mm 0 W/m2
22:44 15.7 °C 11.2 °C 1010.5 hPa NE 6.7 km/h 24.1 km/h 74.9% 0.0 mm 0 W/m2
22:49 16 °C 11.4 °C 1010.5 hPa NE 4.8 km/h 16.3 km/h 73.9% 0.0 mm 0 W/m2
22:54 16 °C 11.1 °C 1010.2 hPa NNE 3.8 km/h 16.3 km/h 72.7% 0.0 mm 0 W/m2
22:59 16.1 °C 11.1 °C 1010.5 hPa NNE 4.3 km/h 28 km/h 72.3% 0.0 mm 0 W/m2
23:04 16.3 °C 11.2 °C 1010.5 hPa NW 3 km/h 16.3 km/h 72.2% 0.0 mm 0 W/m2
23:09 16.5 °C 11.4 °C 1011.2 hPa North 4.3 km/h 24.1 km/h 72% 0.0 mm 0 W/m2
23:14 16.5 °C 11.4 °C 1011.5 hPa NW 3.2 km/h 24.1 km/h 72% 0.0 mm 0 W/m2
23:19 16.5 °C 11.5 °C 1011.9 hPa SE 1.5 km/h 16.3 km/h 72.8% 0.0 mm 0 W/m2
23:24 16.4 °C 11.5 °C 1011.9 hPa SE 1.8 km/h 12.2 km/h 73% 0.0 mm 0 W/m2
23:29 16.2 °C 11.6 °C 1011.9 hPa NE 1.8 km/h 12.2 km/h 73.8% 0.0 mm 0 W/m2
23:34 16.2 °C 12 °C 1011.9 hPa ESE 1.2 km/h 7.9 km/h 76.3% 0.0 mm 0 W/m2
23:39 16 °C 12.3 °C 1011.9 hPa SSE 0.2 km/h 7.9 km/h 78.7% 0.0 mm 0 W/m2
23:44 15.5 °C 12 °C 1012.2 hPa SSE 0.2 km/h 7.9 km/h 79.2% 0.0 mm 0 W/m2
23:49 14.7 °C 11.3 °C 1012.2 hPa Calm   7.9 km/h 80% 0.0 mm 0 W/m2
23:54 14.6 °C 11.4 °C 1012.2 hPa South 4.1 km/h 7.9 km/h 80.9% 0.0 mm 0 W/m2
23:59 14.6 °C 11.4 °C 1011.9 hPa South 1.3 km/h 7.9 km/h 81% 0.0 mm 0 W/m2
Juneau County Weather
Compliments of Weather Underground - 2 mb